Pacific Valley, California
Current Conditions -  °F | °C
As of 9:01 PM on Saturday 25 Oct 2014 (Local Time) from KMRY Reporting Station
Overcast Overcast  
Wind Chill: 59°   Ceiling: 2600
Heat Index: 59°   Visibility: 10mi
Dew Point: 54°   Wind: 3mph
Humidity: 82%   Direction: 90°E
Pressure: 30.12"   Gusts: NA
Location:  36.2518°N, 121.704°W
Report Text: KMRY 260401Z AUTO 09003KT 10SM BKN026 OVC033 15/12 A3012 RMK AO2
Loading
Personal Weather Stations






























Interactive Weather Map
Tropical Storm Tracking
New forecast layout! Learn more

10-Day Weather Forecast

Advertisements
Track Severe Weather on mobile